Time;durP1;ratioP1;P1;durP2;ratioP2;P2;SDS_P1;SDS_P2;PMS_P1;PMS_P2;Temp;Humidity;BMP_temperature;BMP_pressure;BME280_temperature;BME280_humidity;BME280_pressure;Samples;Min_cycle;Max_cycle;Signal;HPM_P1;HPM_P2
2022/09/30 00:00:20;;;;;;;0.40;0.40;;;18.80;58.40;;;;;;5086489;28;20027;-62
2022/09/30 00:02:46;;;;;;;0.30;0.30;;;18.80;58.50;;;;;;5086482;28;20201;-60
2022/09/30 00:05:12;;;;;;;0.40;0.30;;;18.80;58.40;;;;;;5086449;28;20095;-61
2022/09/30 00:07:38;;;;;;;0.50;0.50;;;18.80;59.00;;;;;;5086663;28;20029;-61
2022/09/30 00:10:05;;;;;;;0.38;0.38;;;18.80;58.50;;;;;;5086363;28;20052;-61
2022/09/30 00:12:31;;;;;;;0.70;0.40;;;18.80;58.50;;;;;;5086261;28;20016;-61
2022/09/30 00:14:57;;;;;;;0.30;0.30;;;18.80;58.50;;;;;;5086294;28;20254;-62
2022/09/30 00:17:23;;;;;;;0.50;0.32;;;18.80;58.50;;;;;;5086207;28;20072;-61
2022/09/30 00:19:49;;;;;;;0.38;0.38;;;18.80;58.50;;;;;;5086221;28;20043;-61
2022/09/30 00:22:14;;;;;;;0.73;0.40;;;18.80;58.50;;;;;;5086006;28;20056;-61
2022/09/30 00:24:40;;;;;;;0.25;0.25;;;18.80;58.50;;;;;;5086035;28;20020;-61
2022/09/30 00:27:06;;;;;;;0.30;0.30;;;18.80;58.50;;;;;;5086052;28;20027;-61
2022/09/30 00:29:32;;;;;;;0.40;0.30;;;18.80;58.50;;;;;;5086002;28;20213;-61
2022/09/30 00:31:58;;;;;;;0.32;0.32;;;18.80;58.50;;;;;;5086115;28;20017;-61
2022/09/30 00:34:23;;;;;;;0.32;0.32;;;18.70;58.50;;;;;;5085352;28;20216;-61
2022/09/30 00:36:51;;;;;;;0.40;0.40;;;18.80;58.50;;;;;;5085885;28;20362;-61
2022/09/30 00:39:24;;;;;;;0.30;0.30;;;18.70;58.50;;;;;;5085829;28;20122;-61
2022/09/30 00:41:57;;;;;;;0.47;0.40;;;18.80;58.50;;;;;;5085785;28;20220;-62
2022/09/30 00:44:54;;;;;;;0.30;0.30;;;18.80;58.50;;;;;;5086020;28;20067;-61
2022/09/30 00:47:44;;;;;;;0.55;0.55;;;18.80;58.50;;;;;;5085666;28;20026;-61
2022/09/30 00:50:25;;;;;;;0.40;0.40;;;18.80;58.50;;;;;;5085612;28;20070;-61
2022/09/30 00:53:00;;;;;;;0.40;0.40;;;18.80;58.50;;;;;;5085833;28;20020;-61
2022/09/30 00:55:32;;;;;;;0.38;0.30;;;18.80;58.50;;;;;;5085579;28;20012;-61
2022/09/30 00:58:00;;;;;;;0.30;0.30;;;18.70;58.50;;;;;;5085485;28;20070;-61
2022/09/30 01:00:25;;;;;;;0.20;0.20;;;18.80;58.50;;;;;;5085452;28;20028;-61
2022/09/30 01:02:52;;;;;;;0.55;0.40;;;18.70;58.50;;;;;;5085382;28;20024;-61
2022/09/30 01:05:19;;;;;;;0.30;0.22;;;18.70;58.50;;;;;;5085299;28;20031;-60
2022/09/30 01:07:45;;;;;;;0.40;0.40;;;18.70;58.50;;;;;;5085316;28;20047;-61
2022/09/30 01:10:11;;;;;;;0.30;0.30;;;18.80;58.50;;;;;;5085179;28;20319;-61
2022/09/30 01:12:38;;;;;;;0.20;0.20;;;18.80;58.60;;;;;;5085115;28;20020;-61
2022/09/30 01:15:05;;;;;;;0.40;0.30;;;18.70;58.50;;;;;;5085147;28;20079;-61
2022/09/30 01:17:58;;;;;;;0.63;0.30;;;18.80;58.60;;;;;;5085381;28;20185;-61
2022/09/30 01:20:52;;;;;;;0.30;0.30;;;18.80;58.60;;;;;;5084883;28;20027;-62
2022/09/30 01:23:41;;;;;;;0.30;0.30;;;18.70;58.50;;;;;;5084986;28;20021;-61
2022/09/30 01:26:47;;;;;;;0.43;0.38;;;18.80;58.60;;;;;;5084924;28;20017;-62
2022/09/30 01:29:54;;;;;;;0.40;0.40;;;18.80;58.60;;;;;;5076253;28;20033;-61
2022/09/30 01:32:22;;;;;;;0.45;0.20;;;18.80;58.60;;;;;;5061152;28;20239;-60
2022/09/30 01:35:18;;;;;;;0.30;0.30;;;18.70;58.50;;;;;;5084804;28;20021;-60
2022/09/30 01:38:06;;;;;;;0.43;0.43;;;18.80;58.60;;;;;;5084684;28;20028;-60
2022/09/30 01:41:10;;;;;;;0.20;0.20;;;18.80;58.60;;;;;;5084665;28;20200;-61
2022/09/30 01:43:45;;;;;;;0.40;0.40;;;18.70;58.60;;;;;;5083965;28;20056;-60
2022/09/30 01:46:25;;;;;;;0.30;0.30;;;18.70;58.60;;;;;;5083928;28;20017;-61
2022/09/30 01:48:57;;;;;;;0.32;0.32;;;18.80;58.70;;;;;;5084498;28;20027;-61
2022/09/30 01:51:40;;;;;;;0.47;0.47;;;18.70;58.60;;;;;;5084651;28;20251;-61
2022/09/30 01:54:15;;;;;;;0.30;0.30;;;18.70;58.60;;;;;;5084396;28;20023;-61
2022/09/30 01:56:48;;;;;;;0.45;0.30;;;18.80;58.60;;;;;;5084296;28;20143;-61
2022/09/30 01:59:20;;;;;;;0.25;0.25;;;18.70;58.60;;;;;;5084253;28;20016;-61
2022/09/30 02:01:50;;;;;;;0.32;0.32;;;18.70;58.60;;;;;;5084260;28;20203;-61
2022/09/30 02:04:23;;;;;;;0.88;0.60;;;18.70;58.60;;;;;;5084193;28;20021;-61
2022/09/30 02:06:55;;;;;;;0.40;0.30;;;18.80;58.60;;;;;;5084169;28;20012;-61
2022/09/30 02:09:39;;;;;;;0.40;0.40;;;18.70;58.60;;;;;;5084077;28;20031;-61
2022/09/30 02:12:10;;;;;;;0.40;0.40;;;18.70;58.60;;;;;;5083964;28;20023;-61
2022/09/30 02:14:44;;;;;;;0.55;0.38;;;18.70;58.60;;;;;;5084066;28;20023;-62
2022/09/30 02:17:22;;;;;;;0.30;0.30;;;18.70;58.60;;;;;;5083982;28;20008;-62
2022/09/30 02:19:58;;;;;;;0.38;0.30;;;18.70;58.60;;;;;;5083988;28;20008;-61
2022/09/30 02:22:36;;;;;;;0.30;0.30;;;18.70;58.60;;;;;;5083765;28;20048;-61
2022/09/30 02:25:05;;;;;;;0.20;0.20;;;18.70;58.60;;;;;;5083884;28;20012;-61
2022/09/30 02:27:47;;;;;;;0.20;0.20;;;18.70;58.60;;;;;;5083806;28;20044;-61
2022/09/30 02:30:13;;;;;;;0.35;0.30;;;18.70;58.60;;;;;;5083781;28;20020;-62
2022/09/30 02:32:45;;;;;;;0.30;0.30;;;18.70;58.50;;;;;;5083670;28;20043;-61
2022/09/30 02:35:25;;;;;;;0.63;0.50;;;18.70;58.60;;;;;;5084052;28;20020;-61
2022/09/30 02:38:02;;;;;;;0.40;0.40;;;18.70;58.60;;;;;;5083668;28;20016;-62
2022/09/30 02:40:47;;;;;;;0.20;0.20;;;18.70;58.60;;;;;;5083678;28;20028;-61
2022/09/30 02:43:15;;;;;;;0.28;0.22;;;18.70;58.50;;;;;;5083826;28;20084;-60
2022/09/30 02:46:31;;;;;;;0.30;0.30;;;18.70;58.60;;;;;;5065723;28;20024;-61
2022/09/30 02:49:18;;;;;;;0.30;0.30;;;18.70;58.60;;;;;;5057748;28;20232;-61
2022/09/30 02:51:57;;;;;;;0.57;0.40;;;18.70;58.60;;;;;;5083458;28;20073;-61
2022/09/30 02:54:40;;;;;;;0.40;0.40;;;18.70;58.60;;;;;;5083518;28;20020;-61
2022/09/30 02:57:24;;;;;;;0.40;0.40;;;18.70;58.60;;;;;;5083257;28;20362;-62
2022/09/30 02:59:51;;;;;;;0.30;0.30;;;18.70;58.70;;;;;;5083457;28;20122;-61
2022/09/30 03:02:19;;;;;;;0.45;0.45;;;18.70;58.60;;;;;;5083403;28;20066;-61
2022/09/30 03:04:47;;;;;;;0.30;0.30;;;18.70;58.60;;;;;;5083392;28;20215;-62
2022/09/30 03:07:13;;;;;;;0.20;0.20;;;18.70;58.60;;;;;;5083349;28;20317;-61
2022/09/30 03:09:39;;;;;;;0.30;0.30;;;18.70;58.60;;;;;;5083360;28;20040;-61
2022/09/30 03:12:23;;;;;;;0.38;0.38;;;18.70;58.60;;;;;;5083521;28;20016;-61
2022/09/30 03:14:54;;;;;;;0.20;0.20;;;18.70;58.70;;;;;;5083638;28;20021;-62
2022/09/30 03:17:52;;;;;;;0.68;0.30;;;18.70;58.70;;;;;;5083270;28;20024;-60
2022/09/30 03:20:27;;;;;;;0.30;0.30;;;18.70;58.70;;;;;;5049217;28;20063;-61
2022/09/30 03:23:07;;;;;;;0.30;0.30;;;18.70;58.60;;;;;;5083568;28;20070;-61
2022/09/30 03:26:11;;;;;;;1.17;0.25;;;18.70;58.80;;;;;;5083256;28;20016;-61
2022/09/30 03:28:47;;;;;;;0.20;0.20;;;18.70;58.60;;;;;;5083205;28;20074;-61
2022/09/30 03:31:25;;;;;;;0.30;0.25;;;18.70;58.60;;;;;;5083176;28;20021;-61
2022/09/30 03:34:27;;;;;;;0.57;0.50;;;18.70;58.70;;;;;;5083170;28;20405;-60
2022/09/30 03:37:11;;;;;;;0.40;0.40;;;18.70;58.70;;;;;;5083147;28;20044;-61
2022/09/30 03:39:48;;;;;;;0.20;0.20;;;18.70;58.70;;;;;;5083088;28;20039;-61
2022/09/30 03:42:22;;;;;;;0.52;0.52;;;18.60;58.60;;;;;;5083080;28;20031;-61
2022/09/30 03:45:02;;;;;;;0.22;0.20;;;18.70;58.70;;;;;;5083063;28;20058;-62
2022/09/30 03:47:31;;;;;;;0.30;0.30;;;18.70;58.70;;;;;;5083041;28;20312;-61
2022/09/30 03:50:01;;;;;;;0.30;0.30;;;18.70;58.70;;;;;;5065098;28;20131;-61
2022/09/30 03:52:30;;;;;;;0.50;0.40;;;18.70;58.70;;;;;;5082868;28;20024;-62
2022/09/30 03:55:03;;;;;;;0.30;0.30;;;18.60;58.70;;;;;;5082891;28;20047;-61
2022/09/30 03:57:29;;;;;;;0.50;0.40;;;18.70;58.70;;;;;;5082822;28;20008;-61
2022/09/30 03:59:56;;;;;;;0.30;0.30;;;18.60;58.60;;;;;;5064988;28;20017;-61
2022/09/30 04:02:22;;;;;;;0.38;0.30;;;18.60;58.70;;;;;;5082827;28;20022;-61
2022/09/30 04:04:48;;;;;;;0.40;0.30;;;18.70;58.70;;;;;;5082840;28;20021;-61
2022/09/30 04:07:14;;;;;;;0.50;0.50;;;18.60;58.60;;;;;;5082815;28;20134;-61
2022/09/30 04:09:40;;;;;;;0.32;0.32;;;18.70;58.70;;;;;;5083762;28;20031;-62
2022/09/30 04:12:06;;;;;;;0.30;0.30;;;18.60;58.70;;;;;;5086280;28;20076;-61
2022/09/30 04:14:33;;;;;;;0.30;0.30;;;18.60;58.70;;;;;;5086276;28;20021;-61
2022/09/30 04:16:59;;;;;;;0.60;0.32;;;18.70;58.70;;;;;;5086295;28;20080;-61
2022/09/30 04:19:26;;;;;;;0.43;0.40;;;18.60;58.70;;;;;;5086238;28;20020;-62
2022/09/30 04:21:53;;;;;;;0.20;0.20;;;18.70;58.70;;;;;;5086037;28;20087;-61
2022/09/30 04:24:22;;;;;;;0.22;0.22;;;18.60;58.70;;;;;;5086144;28;20032;-61
2022/09/30 04:26:49;;;;;;;0.43;0.43;;;18.70;58.70;;;;;;5086378;28;20035;-61
2022/09/30 04:29:14;;;;;;;2.45;0.55;;;18.70;58.70;;;;;;5086011;28;20360;-62
2022/09/30 04:31:40;;;;;;;0.30;0.30;;;18.60;58.70;;;;;;5085954;28;20031;-61
2022/09/30 04:34:06;;;;;;;0.32;0.32;;;18.60;58.70;;;;;;5085944;28;20074;-61
2022/09/30 04:36:32;;;;;;;0.50;0.40;;;18.60;58.70;;;;;;5085905;28;20212;-61
2022/09/30 04:39:01;;;;;;;0.30;0.30;;;18.60;58.70;;;;;;5085859;28;20031;-61
2022/09/30 04:41:28;;;;;;;;;;;18.70;58.70;;;;;;5086273;28;20016;-61
2022/09/30 04:43:54;;;;;;;0.38;0.30;;;18.60;58.70;;;;;;5085835;28;19907;-61
2022/09/30 04:46:21;;;;;;;0.30;0.30;;;18.60;58.70;;;;;;5085720;28;20020;-61
2022/09/30 04:48:47;;;;;;;0.20;0.20;;;18.60;58.70;;;;;;5085690;28;20065;-61
2022/09/30 04:51:18;;;;;;;0.50;0.43;;;18.70;58.70;;;;;;5085631;28;20054;-62
2022/09/30 04:53:44;;;;;;;0.30;0.30;;;18.60;58.70;;;;;;5085590;28;20020;-61
2022/09/30 04:56:10;;;;;;;0.30;0.30;;;18.60;58.70;;;;;;5085545;28;20070;-61
2022/09/30 04:58:36;;;;;;;0.30;0.30;;;18.60;58.80;;;;;;5085520;28;20020;-61
2022/09/30 05:01:04;;;;;;;0.40;0.40;;;18.60;58.70;;;;;;5085472;28;20254;-61
2022/09/30 05:03:30;;;;;;;0.30;0.30;;;18.60;58.70;;;;;;5085390;28;20021;-61
2022/09/30 05:05:56;;;;;;;0.30;0.30;;;18.60;59.30;;;;;;5085346;28;20100;-60
2022/09/30 05:08:22;;;;;;;0.50;0.47;;;18.60;58.70;;;;;;5085315;28;20317;-61
2022/09/30 05:11:00;;;;;;;0.25;0.25;;;18.60;58.70;;;;;;5085279;28;20027;-61
2022/09/30 05:13:33;;;;;;;0.30;0.28;;;18.70;58.80;;;;;;5085130;28;20221;-61
2022/09/30 05:15:59;;;;;;;0.30;0.30;;;18.60;58.70;;;;;;5085193;28;20020;-61
2022/09/30 05:18:25;;;;;;;0.20;0.20;;;18.70;58.70;;;;;;5085173;28;20020;-61
2022/09/30 05:20:52;;;;;;;0.30;0.30;;;18.70;58.70;;;;;;5084828;28;20098;-61
2022/09/30 05:23:19;;;;;;;0.30;0.20;;;18.70;58.70;;;;;;5085028;28;20031;-61
2022/09/30 05:25:46;;;;;;;0.22;0.20;;;18.60;58.70;;;;;;5084997;28;20024;-61
2022/09/30 05:28:12;;;;;;;0.38;0.38;;;18.60;58.70;;;;;;5084784;28;20031;-60
2022/09/30 05:30:40;;;;;;;0.40;0.40;;;18.60;58.70;;;;;;5084840;28;20028;-61
2022/09/30 05:33:07;;;;;;;0.45;0.38;;;18.60;58.70;;;;;;5084751;28;20061;-62
2022/09/30 05:35:33;;;;;;;0.20;0.20;;;18.70;58.70;;;;;;5085022;28;20020;-62
2022/09/30 05:38:00;;;;;;;0.30;0.30;;;18.60;58.60;;;;;;5084732;28;20036;-61
2022/09/30 05:40:25;;;;;;;0.30;0.30;;;18.70;58.70;;;;;;5084670;28;20312;-62
2022/09/30 05:42:51;;;;;;;0.28;0.28;;;18.70;58.70;;;;;;5084598;28;20032;-62
2022/09/30 05:45:17;;;;;;;0.43;0.30;;;18.60;58.60;;;;;;5084533;28;20028;-61
2022/09/30 05:47:43;;;;;;;1.25;0.30;;;18.70;58.70;;;;;;5084536;28;20021;-61
2022/09/30 05:50:09;;;;;;;0.40;0.22;;;18.60;58.60;;;;;;5084467;28;20106;-61
2022/09/30 05:52:34;;;;;;;0.30;0.30;;;18.70;58.60;;;;;;5084370;28;20103;-62
2022/09/30 05:55:00;;;;;;;0.30;0.30;;;18.70;58.60;;;;;;5084384;28;20219;-62
2022/09/30 05:57:29;;;;;;;0.30;0.30;;;18.60;58.60;;;;;;5066510;28;20220;-61
2022/09/30 05:59:56;;;;;;;;;;;18.70;58.70;;;;;;5084753;28;20079;-61
2022/09/30 06:02:22;;;;;;;0.50;0.50;;;18.70;58.70;;;;;;5084249;28;19936;-60
2022/09/30 06:04:49;;;;;;;0.30;0.30;;;18.60;58.60;;;;;;5084161;28;20079;-60
2022/09/30 06:07:15;;;;;;;0.40;0.30;;;18.70;58.70;;;;;;5084151;28;20083;-61
2022/09/30 06:09:42;;;;;;;0.30;0.30;;;18.70;58.70;;;;;;5084096;28;20031;-62
2022/09/30 06:12:08;;;;;;;0.30;0.30;;;18.70;58.60;;;;;;5083858;28;20339;-61
2022/09/30 06:14:34;;;;;;;0.30;0.22;;;18.60;58.60;;;;;;5084272;28;20066;-61
2022/09/30 06:16:59;;;;;;;0.30;0.30;;;18.70;58.70;;;;;;5083977;28;20016;-61
2022/09/30 06:19:29;;;;;;;0.50;0.50;;;18.70;58.70;;;;;;5083891;28;20039;-61
2022/09/30 06:21:55;;;;;;;0.20;0.20;;;18.70;58.70;;;;;;5083781;28;20128;-61
2022/09/30 06:24:21;;;;;;;0.30;0.30;;;18.70;58.70;;;;;;5083854;28;20029;-61
2022/09/30 06:26:47;;;;;;;8.75;0.73;;;18.60;58.60;;;;;;5083848;28;20016;-61
2022/09/30 06:29:13;;;;;;;32.70;3.25;;;18.60;58.80;;;;;;5083784;28;20032;-63
2022/09/30 06:31:39;;;;;;;8.70;1.65;;;18.60;59.80;;;;;;5083538;28;20023;-63
2022/09/30 06:34:09;;;;;;;9.35;1.00;;;18.60;59.70;;;;;;5085689;28;20016;-63
2022/09/30 06:36:36;;;;;;;6.32;1.48;;;18.60;59.50;;;;;;5079848;28;20224;-62
2022/09/30 06:39:04;;;;;;;5.88;0.80;;;18.70;59.60;;;;;;5063567;28;20017;-61
2022/09/30 06:41:32;;;;;;;15.30;3.20;;;18.70;59.30;;;;;;5066429;28;20009;-60
2022/09/30 06:43:58;;;;;;;5.05;0.63;;;18.70;59.50;;;;;;5079040;28;20250;-61
2022/09/30 06:46:26;;;;;;;5.10;1.15;;;18.70;59.50;;;;;;5083496;28;20062;-61
2022/09/30 06:48:59;;;;;;;7.47;0.60;;;18.70;59.40;;;;;;5087152;28;20048;-61
2022/09/30 06:51:46;;;;;;;3.63;0.85;;;18.80;59.50;;;;;;5070973;28;20100;-62
2022/09/30 06:54:22;;;;;;;1.70;0.68;;;18.80;59.30;;;;;;5059263;28;20194;-61
2022/09/30 06:56:52;;;;;;;1.33;0.70;;;18.80;59.40;;;;;;5063203;28;20066;-62
2022/09/30 06:59:19;;;;;;;5.60;2.22;;;18.80;59.40;;;;;;5069731;28;20058;-61
2022/09/30 07:01:46;;;;;;;11.88;2.22;;;18.90;59.30;;;;;;5083174;28;20013;-60
2022/09/30 07:04:15;;;;;;;12.38;1.35;;;18.90;59.30;;;;;;5067909;28;20036;-60
2022/09/30 07:06:41;;;;;;;14.80;1.10;;;18.90;59.30;;;;;;5063052;28;20036;-61
2022/09/30 07:09:13;;;;;;;6.32;0.80;;;18.90;59.20;;;;;;5062922;28;20021;-61
2022/09/30 07:11:40;;;;;;;7.53;1.13;;;18.90;59.40;;;;;;5067409;28;20028;-61
2022/09/30 07:14:07;;;;;;;8.65;1.77;;;18.90;59.30;;;;;;5063697;28;20052;-61
2022/09/30 07:16:33;;;;;;;20.92;2.58;;;19.00;59.30;;;;;;5079774;28;20021;-61
2022/09/30 07:19:04;;;;;;;20.90;2.45;;;19.00;59.20;;;;;;5082882;28;20197;-61
2022/09/30 07:21:31;;;;;;;21.40;3.13;;;19.00;59.20;;;;;;5082886;28;20338;-61
2022/09/30 07:24:00;;;;;;;24.50;3.60;;;19.00;59.40;;;;;;5083036;28;20058;-62
2022/09/30 07:26:28;;;;;;;24.02;5.38;;;19.00;59.30;;;;;;5083047;28;20066;-60
2022/09/30 07:28:55;;;;;;;18.25;3.47;;;19.10;59.50;;;;;;5082788;28;20031;-61
2022/09/30 07:31:24;;;;;;;17.98;4.68;;;19.00;59.50;;;;;;5082860;28;20016;-63
2022/09/30 07:33:51;;;;;;;25.60;3.70;;;19.00;59.50;;;;;;5082769;28;20016;-61
2022/09/30 07:36:22;;;;;;;17.23;3.60;;;19.00;60.10;;;;;;5082813;28;20016;-61
2022/09/30 07:38:51;;;;;;;18.35;3.75;;;19.00;59.60;;;;;;5078982;28;20177;-61
2022/09/30 07:41:28;;;;;;;17.75;2.97;;;19.00;59.60;;;;;;5062667;28;20021;-61
2022/09/30 07:43:55;;;;;;;19.48;3.42;;;19.00;59.70;;;;;;5062714;28;20082;-61
2022/09/30 07:46:29;;;;;;;19.13;2.50;;;19.00;59.80;;;;;;5070437;28;20048;-61
2022/09/30 07:48:59;;;;;;;35.10;4.03;;;18.90;59.80;;;;;;5084215;28;20050;-60
2022/09/30 07:51:32;;;;;;;31.15;4.60;;;19.00;59.90;;;;;;5086435;28;20016;-60
2022/09/30 07:54:11;;;;;;;21.92;3.30;;;19.00;60.20;;;;;;5086516;28;20406;-60
2022/09/30 07:56:38;;;;;;;27.83;3.58;;;19.00;59.80;;;;;;5076476;28;20267;-61
2022/09/30 07:59:05;;;;;;;21.73;3.08;;;19.00;59.80;;;;;;5067203;28;20044;-55
2022/09/30 08:01:32;;;;;;;27.27;3.35;;;19.00;59.70;;;;;;5086069;28;20043;-55
2022/09/30 08:04:00;;;;;;;34.63;3.85;;;19.00;59.80;;;;;;5086285;28;20020;-54
2022/09/30 08:06:27;;;;;;;25.42;4.15;;;19.00;59.80;;;;;;5084543;28;20248;-55
2022/09/30 08:08:55;;;;;;;25.25;3.40;;;18.90;59.90;;;;;;5085226;28;20089;-56
2022/09/30 08:11:22;;;;;;;25.67;3.22;;;18.90;59.90;;;;;;5087282;28;20212;-56
2022/09/30 08:13:52;;;;;;;46.30;3.97;;;19.00;60.00;;;;;;5094445;28;20032;-56
2022/09/30 08:16:18;;;;;;;38.88;4.18;;;18.90;60.10;;;;;;5085977;28;20024;-56
2022/09/30 08:18:44;;;;;;;15.40;3.78;;;18.90;60.10;;;;;;5085959;28;20032;-56
2022/09/30 08:21:09;;;;;;;25.15;3.13;;;18.90;60.00;;;;;;5072002;28;20045;-56
2022/09/30 08:23:35;;;;;;;26.40;4.30;;;18.90;60.00;;;;;;5075283;28;20028;-56
2022/09/30 08:26:08;;;;;;;20.25;3.28;;;18.90;60.20;;;;;;5085842;28;20331;-56
2022/09/30 08:28:34;;;;;;;21.55;4.32;;;18.90;60.10;;;;;;5085807;28;20080;-55
2022/09/30 08:31:11;;;;;;;21.08;3.33;;;18.90;59.90;;;;;;5085700;28;20339;-56
2022/09/30 08:33:38;;;;;;;12.13;2.88;;;18.90;60.10;;;;;;5084569;28;20033;-55
2022/09/30 08:36:08;;;;;;;28.42;4.30;;;18.90;60.10;;;;;;5085596;28;20020;-56
2022/09/30 08:38:34;;;;;;;15.43;3.53;;;18.90;60.20;;;;;;5084773;28;20040;-55
2022/09/30 08:41:30;;;;;;;18.35;3.20;;;18.90;60.20;;;;;;5085146;28;20312;-55
2022/09/30 08:44:22;;;;;;;18.23;3.17;;;18.80;60.20;;;;;;5085519;28;20016;-55
2022/09/30 08:46:51;;;;;;;24.40;5.18;;;18.90;60.30;;;;;;5067681;28;20016;-55
2022/09/30 08:49:54;;;;;;;17.73;2.92;;;18.90;60.30;;;;;;5082332;28;20028;-55
2022/09/30 08:52:42;;;;;;;31.77;4.20;;;18.90;60.20;;;;;;5084975;28;20021;-54
2022/09/30 08:55:20;;;;;;;21.45;2.95;;;18.90;60.50;;;;;;5083376;28;20028;-55
2022/09/30 08:57:46;;;;;;;20.50;4.13;;;18.90;60.30;;;;;;5092397;28;20047;-55
2022/09/30 09:00:15;;;;;;;32.60;4.22;;;18.80;60.30;;;;;;5105294;28;20027;-55
2022/09/30 09:02:43;;;;;;;;;;;18.90;60.40;;;;;;5105960;28;20020;-55
2022/09/30 09:05:45;;;;;;;18.48;3.88;;;18.90;60.40;;;;;;5105477;28;19901;-55
2022/09/30 09:08:48;;;;;;;35.85;4.47;;;19.00;60.20;;;;;;5105391;28;20070;-54
2022/09/30 09:11:44;;;;;;;24.90;3.17;;;19.00;60.20;;;;;;5105282;28;20181;-54
2022/09/30 09:14:34;;;;;;;31.25;5.28;;;19.00;60.10;;;;;;5105234;28;20020;-61
2022/09/30 09:17:12;;;;;;;26.25;4.05;;;19.00;60.00;;;;;;5088449;28;20070;-61
2022/09/30 09:20:03;;;;;;;23.88;3.92;;;19.00;60.10;;;;;;5064747;28;20309;-60
2022/09/30 09:22:31;;;;;;;22.80;4.35;;;19.00;60.00;;;;;;5064194;28;20045;-61
2022/09/30 09:24:57;;;;;;;28.10;3.70;;;19.00;60.10;;;;;;5064693;28;20012;-61
2022/09/30 09:27:34;;;;;;;24.55;3.05;;;19.00;60.10;;;;;;5065278;28;20305;-61
2022/09/30 09:30:07;;;;;;;18.45;4.10;;;19.10;60.00;;;;;;5066371;28;20021;-61
2022/09/30 09:32:35;;;;;;;17.90;4.15;;;19.10;60.00;;;;;;5081196;28;20024;-69
2022/09/30 09:35:12;;;;;;;19.25;3.55;;;19.10;60.10;;;;;;5073941;28;20305;-67
2022/09/30 09:41:07;;;;;;;20.53;3.17;;;19.10;60.10;;;;;;5082007;28;20325;-66
2022/09/30 09:43:45;;;;;;;12.03;3.27;;;19.10;60.10;;;;;;5074656;28;20250;-66
2022/09/30 09:46:39;;;;;;;18.65;3.17;;;19.00;60.50;;;;;;5067595;28;20024;-67
2022/09/30 09:49:22;;;;;;;15.05;3.80;;;19.00;60.50;;;;;;5063575;28;20028;-66
2022/09/30 09:52:11;;;;;;;25.85;3.53;;;19.00;60.50;;;;;;5084085;28;20336;-62
2022/09/30 09:54:42;;;;;;;16.08;2.80;;;19.00;60.50;;;;;;5084315;28;20066;-65
2022/09/30 09:57:30;;;;;;;22.45;3.85;;;19.00;60.50;;;;;;5094041;28;20286;-70
2022/09/30 10:03:12;;;;;;;23.77;4.53;;;19.10;60.10;;;;;;5064134;28;20229;-67
2022/09/30 10:05:38;;;;;;;25.65;4.35;;;19.20;60.00;;;;;;5063723;28;20028;-65
2022/09/30 10:08:19;;;;;;;34.08;7.60;;;19.20;61.30;;;;;;5062808;28;20021;-67
2022/09/30 10:10:59;;;;;;;16.45;3.03;;;19.20;61.60;;;;;;5063501;28;20031;-66
2022/09/30 10:13:46;;;;;;;13.48;3.20;;;19.20;62.50;;;;;;5045688;28;20032;-66
2022/09/30 10:16:36;;;;;;;14.75;3.67;;;19.20;62.30;;;;;;5063101;28;20033;-66
2022/09/30 10:19:04;;;;;;;5.43;2.55;;;19.10;62.40;;;;;;5063356;28;20079;-66
2022/09/30 10:21:30;;;;;;;8.30;3.03;;;19.10;63.30;;;;;;5063260;28;20045;-67
2022/09/30 10:23:59;;;;;;;8.00;2.15;;;19.10;62.90;;;;;;5063417;28;20450;-67
2022/09/30 10:26:26;;;;;;;5.03;1.98;;;19.10;62.80;;;;;;5063349;28;20053;-65
2022/09/30 10:28:55;;;;;;;8.50;2.83;;;19.10;63.70;;;;;;5063246;28;20259;-66
2022/09/30 10:31:26;;;;;;;9.60;2.67;;;19.10;63.90;;;;;;5063249;28;20018;-67
2022/09/30 10:34:14;;;;;;;7.85;2.55;;;19.10;63.30;;;;;;5079551;28;20068;-66
2022/09/30 10:36:42;;;;;;;10.10;2.42;;;19.10;64.00;;;;;;5070987;28;20272;-68
2022/09/30 10:39:22;;;;;;;3.13;1.88;;;19.10;62.90;;;;;;5083375;28;20058;-66
2022/09/30 10:41:49;;;;;;;12.00;2.03;;;19.20;64.40;;;;;;5083377;28;20008;-66
2022/09/30 10:44:22;;;;;;;6.40;2.67;;;19.20;64.00;;;;;;5083372;28;20016;-66
2022/09/30 10:46:52;;;;;;;8.23;2.90;;;19.20;64.40;;;;;;5082402;28;20358;-64
2022/09/30 10:49:28;;;;;;;6.22;1.60;;;19.20;64.10;;;;;;5081823;28;20083;-68
2022/09/30 10:51:56;;;;;;;5.22;2.25;;;19.20;63.70;;;;;;5083312;28;20020;-68
2022/09/30 10:54:49;;;;;;;8.70;3.55;;;19.30;63.40;;;;;;5083296;28;20028;-67
2022/09/30 10:57:36;;;;;;;4.88;1.90;;;19.30;64.00;;;;;;5083263;28;20016;-68
2022/09/30 11:00:16;;;;;;;9.18;1.80;;;19.30;63.30;;;;;;5082349;28;20019;-67
2022/09/30 11:02:53;;;;;;;4.43;2.25;;;19.30;63.70;;;;;;5082458;28;20022;-68
2022/09/30 11:05:26;;;;;;;38.07;4.37;;;19.20;63.60;;;;;;5083185;28;20032;-66
2022/09/30 11:08:12;;;;;;;41.53;5.22;;;19.10;63.70;;;;;;5069657;28;20131;-63
2022/09/30 11:11:09;;;;;;;54.13;5.07;;;19.10;64.20;;;;;;5062571;28;20024;-63
2022/09/30 11:13:41;;;;;;;28.65;3.45;;;19.10;63.70;;;;;;5063268;28;20086;-63
2022/09/30 11:16:24;;;;;;;26.73;3.20;;;19.10;63.70;;;;;;5062949;28;20224;-63
2022/09/30 11:19:18;;;;;;;43.00;3.88;;;19.10;64.10;;;;;;5064505;28;20063;-63
2022/09/30 11:21:52;;;;;;;21.20;5.78;;;19.10;63.20;;;;;;5054615;28;20060;-62
2022/09/30 11:24:41;;;;;;;31.30;3.10;;;19.10;63.10;;;;;;5065660;28;20017;-64
2022/09/30 11:27:30;;;;;;;20.63;3.70;;;19.10;63.00;;;;;;5065565;28;20016;-63
2022/09/30 11:30:18;;;;;;;16.70;3.00;;;19.10;63.00;;;;;;5065567;28;20054;-63
2022/09/30 11:33:14;;;;;;;25.80;3.25;;;19.10;62.80;;;;;;5066147;28;20028;-62
2022/09/30 11:35:55;;;;;;;27.45;3.90;;;19.10;62.50;;;;;;5066629;28;20321;-63
2022/09/30 11:38:48;;;;;;;18.42;3.45;;;19.10;63.20;;;;;;5067033;28;20059;-63
2022/09/30 11:41:37;;;;;;;18.08;2.72;;;19.20;62.50;;;;;;5067006;28;20024;-63
2022/09/30 11:44:21;;;;;;;18.10;3.13;;;19.20;62.20;;;;;;5066584;28;20028;-63
2022/09/30 11:47:24;;;;;;;11.10;3.00;;;19.20;62.20;;;;;;5066877;28;20205;-64
2022/09/30 11:50:05;;;;;;;17.33;2.65;;;19.20;62.10;;;;;;5066812;28;20017;-63
2022/09/30 11:53:00;;;;;;;14.38;3.05;;;19.10;62.10;;;;;;5066695;28;20028;-64
2022/09/30 11:55:46;;;;;;;17.33;3.65;;;19.10;62.20;;;;;;5066736;28;20305;-64
2022/09/30 11:58:18;;;;;;;12.45;2.45;;;19.10;62.10;;;;;;5066684;28;20017;-64
2022/09/30 12:00:49;;;;;;;18.77;2.65;;;19.10;62.10;;;;;;5066585;28;20013;-64
2022/09/30 12:03:25;;;;;;;8.30;2.55;;;19.10;62.10;;;;;;5066565;28;20017;-64
2022/09/30 12:06:00;;;;;;;13.30;2.92;;;19.10;62.00;;;;;;5066542;28;20095;-64
2022/09/30 12:08:39;;;;;;;10.18;1.73;;;19.20;61.80;;;;;;5066500;28;20044;-64
2022/09/30 12:11:13;;;;;;;19.65;3.53;;;19.30;61.60;;;;;;5066408;28;20236;-65
2022/09/30 12:13:46;;;;;;;14.77;3.58;;;19.30;61.50;;;;;;5066332;28;20309;-64
2022/09/30 12:16:22;;;;;;;9.55;3.08;;;19.20;61.50;;;;;;5066327;28;20017;-65
2022/09/30 12:19:22;;;;;;;17.20;2.60;;;19.20;61.60;;;;;;5066245;28;20039;-64
2022/09/30 12:22:00;;;;;;;11.38;2.53;;;19.20;61.70;;;;;;5048736;28;20037;-65
2022/09/30 12:24:36;;;;;;;8.80;2.50;;;19.20;61.70;;;;;;5066208;28;20017;-64
2022/09/30 12:27:22;;;;;;;15.05;2.40;;;19.20;61.60;;;;;;5066128;28;20029;-64
2022/09/30 12:30:16;;;;;;;11.32;1.88;;;19.20;61.70;;;;;;5065552;28;20028;-63
2022/09/30 12:32:54;;;;;;;9.73;2.42;;;19.20;61.60;;;;;;5065917;28;20048;-61
2022/09/30 12:35:48;;;;;;;19.08;2.88;;;19.20;61.60;;;;;;5065925;28;20366;-64
2022/09/30 12:38:36;;;;;;;13.02;3.20;;;19.20;61.50;;;;;;5066127;28;20025;-63
2022/09/30 12:41:14;;;;;;;11.88;1.83;;;19.20;61.30;;;;;;5065913;28;20017;-64
2022/09/30 12:43:58;;;;;;;14.17;2.17;;;19.20;61.40;;;;;;5065889;28;20048;-64
2022/09/30 12:46:57;;;;;;;12.50;2.67;;;19.20;61.20;;;;;;5065755;28;20032;-63
2022/09/30 12:49:25;;;;;;;17.48;3.05;;;19.20;61.30;;;;;;5065766;28;20016;-65
2022/09/30 12:52:01;;;;;;;13.60;2.50;;;19.20;61.40;;;;;;5065567;28;20032;-64
2022/09/30 12:54:34;;;;;;;12.25;3.20;;;19.20;61.40;;;;;;5065643;28;20021;-64
2022/09/30 12:57:03;;;;;;;15.13;1.75;;;19.10;61.40;;;;;;5065562;28;20021;-63
2022/09/30 12:59:35;;;;;;;12.65;2.67;;;19.10;61.50;;;;;;5065745;28;20063;-64
2022/09/30 13:02:06;;;;;;;8.50;2.08;;;19.10;61.50;;;;;;5065745;28;20285;-64
2022/09/30 13:04:38;;;;;;;9.45;1.90;;;19.10;61.50;;;;;;5065407;28;20092;-64
2022/09/30 13:07:06;;;;;;;7.75;2.03;;;19.10;61.60;;;;;;5065346;28;20024;-64
2022/09/30 13:09:54;;;;;;;15.88;2.75;;;19.10;61.50;;;;;;5065275;28;20017;-64
2022/09/30 13:12:40;;;;;;;12.10;2.80;;;19.10;61.50;;;;;;5065283;28;20092;-64
2022/09/30 13:15:37;;;;;;;9.95;1.85;;;19.10;61.50;;;;;;5065479;28;20029;-64
2022/09/30 13:18:18;;;;;;;5.47;2.10;;;19.10;62.10;;;;;;5065161;28;20305;-64
2022/09/30 13:21:17;;;;;;;13.07;3.22;;;19.10;61.40;;;;;;5065122;28;20290;-63
2022/09/30 13:23:53;;;;;;;12.80;2.03;;;19.10;61.50;;;;;;5065377;28;20017;-64
2022/09/30 13:26:28;;;;;;;12.50;1.80;;;19.10;61.30;;;;;;5065233;28;20053;-65